Time,TemperatureF,DewpointF,PressureIn,WindDirection,WindDirectionDegrees,WindSpeedMPH,WindSpeedGustMPH,Humidity,HourlyPrecipIn,Conditions,Clouds,dailyrainin,SoftwareType,DateUTC
2013-08-15 00:04:00,60.8,59.0,30.06,East,86,0.0,0.0,93,0.00,,,0.00,weatherlink.com 1.10,2013-08-15 04:04:00,
2013-08-15 00:19:00,60.6,59.0,30.06,East,86,0.0,0.0,94,0.00,,,0.00,weatherlink.com 1.10,2013-08-15 04:19:00,
2013-08-15 00:34:00,60.3,59.0,30.06,East,86,0.0,0.0,94,0.00,,,0.00,weatherlink.com 1.10,2013-08-15 04:34:00,
2013-08-15 00:49:00,60.0,58.0,30.06,East,86,0.0,1.0,94,0.00,,,0.00,weatherlink.com 1.10,2013-08-15 04:49:00,
2013-08-15 01:04:00,59.8,58.0,30.06,East,86,0.0,1.0,94,0.00,,,0.00,weatherlink.com 1.10,2013-08-15 05:04:00,
2013-08-15 01:19:00,59.6,58.0,30.06,East,86,0.0,1.0,94,0.00,,,0.00,weatherlink.com 1.10,2013-08-15 05:19:00,
2013-08-15 01:34:00,59.4,58.0,30.07,East,86,0.0,0.0,94,0.00,,,0.00,weatherlink.com 1.10,2013-08-15 05:34:00,
2013-08-15 01:49:00,59.2,58.0,30.06,East,86,0.0,1.0,94,0.00,,,0.00,weatherlink.com 1.10,2013-08-15 05:49:00,
2013-08-15 02:04:00,59.1,57.0,30.06,NE,51,0.0,1.0,94,0.00,,,0.00,weatherlink.com 1.10,2013-08-15 06:04:00,
2013-08-15 02:19:00,59.1,58.0,30.05,NNE,33,0.0,2.0,95,0.00,,,0.00,weatherlink.com 1.10,2013-08-15 06:19:00,
2013-08-15 02:34:00,59.0,57.0,30.05,NE,40,1.0,2.0,94,0.00,,,0.00,weatherlink.com 1.10,2013-08-15 06:34:00,
2013-08-15 02:49:00,58.9,57.0,30.05,NE,36,0.0,2.0,94,0.00,,,0.00,weatherlink.com 1.10,2013-08-15 06:49:00,
2013-08-15 03:04:00,58.8,57.0,30.05,NE,35,0.0,2.0,94,0.00,,,0.00,weatherlink.com 1.10,2013-08-15 07:04:00,
2013-08-15 03:19:00,58.6,57.0,30.05,NE,35,0.0,1.0,94,0.00,,,0.00,weatherlink.com 1.10,2013-08-15 07:19:00,
2013-08-15 03:34:00,58.6,57.0,30.05,NE,35,0.0,0.0,94,0.00,,,0.00,weatherlink.com 1.10,2013-08-15 07:34:00,
2013-08-15 03:49:00,58.6,57.0,30.06,NE,35,0.0,1.0,94,0.00,,,0.00,weatherlink.com 1.10,2013-08-15 07:49:00,
2013-08-15 04:04:00,58.4,57.0,30.06,NE,35,0.0,1.0,94,0.00,,,0.00,weatherlink.com 1.10,2013-08-15 08:04:00,
2013-08-15 04:19:00,58.3,57.0,30.06,NE,35,0.0,2.0,94,0.00,,,0.00,weatherlink.com 1.10,2013-08-15 08:19:00,
2013-08-15 04:34:00,58.2,57.0,30.06,NE,35,1.0,3.0,94,0.00,,,0.00,weatherlink.com 1.10,2013-08-15 08:34:00,
2013-08-15 04:49:00,58.2,57.0,30.07,NNW,340,0.0,3.0,94,0.00,,,0.00,weatherlink.com 1.10,2013-08-15 08:49:00,
2013-08-15 05:04:00,58.1,56.0,30.07,NNW,344,0.0,2.0,94,0.00,,,0.00,weatherlink.com 1.10,2013-08-15 09:04:00,
2013-08-15 05:19:00,58.0,57.0,30.07,North,355,1.0,2.0,95,0.00,,,0.00,weatherlink.com 1.10,2013-08-15 09:19:00,
2013-08-15 05:34:00,58.0,57.0,30.07,North,355,0.0,3.0,95,0.00,,,0.00,weatherlink.com 1.10,2013-08-15 09:34:00,
2013-08-15 05:49:00,57.9,57.0,30.08,North,5,0.0,3.0,95,0.00,,,0.00,weatherlink.com 1.10,2013-08-15 09:49:00,
2013-08-15 06:04:00,57.9,57.0,30.09,NNE,14,0.0,3.0,95,0.00,,,0.00,weatherlink.com 1.10,2013-08-15 10:04:00,
2013-08-15 06:19:00,57.9,57.0,30.09,North,5,0.0,2.0,95,0.00,,,0.00,weatherlink.com 1.10,2013-08-15 10:19:00,
2013-08-15 06:34:00,57.9,57.0,30.09,ENE,63,1.0,3.0,95,0.00,,,0.00,weatherlink.com 1.10,2013-08-15 10:34:00,
2013-08-15 06:49:00,57.9,57.0,30.10,NE,48,0.0,2.0,95,0.00,,,0.00,weatherlink.com 1.10,2013-08-15 10:49:00,
2013-08-15 07:04:00,57.8,56.0,30.11,ENE,77,3.0,4.0,95,0.00,,,0.00,weatherlink.com 1.10,2013-08-15 11:04:00,
2013-08-15 07:19:00,57.8,56.0,30.11,NNE,33,0.0,3.0,94,0.00,,,0.00,weatherlink.com 1.10,2013-08-15 11:19:00,
2013-08-15 07:34:00,58.0,56.0,30.11,North,350,1.0,3.0,94,0.00,,,0.00,weatherlink.com 1.10,2013-08-15 11:34:00,
2013-08-15 07:49:00,58.2,57.0,30.12,ENE,64,1.0,3.0,94,0.00,,,0.00,weatherlink.com 1.10,2013-08-15 11:49:00,
2013-08-15 08:04:00,58.6,57.0,30.12,ENE,78,0.0,6.0,94,0.00,,,0.00,weatherlink.com 1.10,2013-08-15 12:04:00,
2013-08-15 08:19:00,58.9,57.0,30.13,North,349,0.0,5.0,94,0.00,,,0.00,weatherlink.com 1.10,2013-08-15 12:19:00,
2013-08-15 08:34:00,59.1,57.0,30.13,ENE,60,0.0,4.0,92,0.00,,,0.00,weatherlink.com 1.10,2013-08-15 12:34:00,
2013-08-15 08:49:00,59.6,57.0,30.13,North,355,2.0,6.0,91,0.00,,,0.00,weatherlink.com 1.10,2013-08-15 12:49:00,
2013-08-15 09:04:00,60.1,57.0,30.13,NNE,28,2.0,6.0,90,0.00,,,0.00,weatherlink.com 1.10,2013-08-15 13:04:00,
2013-08-15 09:19:00,60.6,57.0,30.13,East,80,0.0,5.0,89,0.00,,,0.00,weatherlink.com 1.10,2013-08-15 13:19:00,
2013-08-15 09:34:00,61.1,58.0,30.13,ENE,61,2.0,7.0,88,0.00,,,0.00,weatherlink.com 1.10,2013-08-15 13:34:00,
2013-08-15 09:49:00,61.6,58.0,30.13,North,355,2.0,6.0,87,0.00,,,0.00,weatherlink.com 1.10,2013-08-15 13:49:00,
2013-08-15 10:05:00,62.0,58.0,30.12,ENE,61,5.0,7.0,85,0.00,,,0.00,weatherlink.com 1.10,2013-08-15 14:05:00,
2013-08-15 10:20:00,62.4,58.0,30.13,North,355,1.0,10.0,85,0.00,,,0.00,weatherlink.com 1.10,2013-08-15 14:20:00,
2013-08-15 10:35:00,62.9,58.0,30.13,North,355,3.0,7.0,84,0.00,,,0.00,weatherlink.com 1.10,2013-08-15 14:35:00,
2013-08-15 10:50:00,63.1,58.0,30.14,ENE,70,0.0,9.0,82,0.00,,,0.00,weatherlink.com 1.10,2013-08-15 14:50:00,
2013-08-15 11:05:00,63.4,58.0,30.14,North,351,3.0,9.0,83,0.00,,,0.00,weatherlink.com 1.10,2013-08-15 15:05:00,
2013-08-15 11:35:00,64.9,58.0,30.14,East,84,1.0,8.0,79,0.00,,,0.00,weatherlink.com 1.10,2013-08-15 15:35:00,
2013-08-15 11:50:00,65.9,59.0,30.13,South,171,1.0,6.0,77,0.00,,,0.00,weatherlink.com 1.10,2013-08-15 15:50:00,
2013-08-15 12:05:00,67.0,58.0,30.13,ENE,62,3.0,8.0,73,0.00,,,0.00,weatherlink.com 1.10,2013-08-15 16:05:00,
2013-08-15 12:20:00,67.7,58.0,30.13,East,84,1.0,7.0,72,0.00,,,0.00,weatherlink.com 1.10,2013-08-15 16:20:00,
2013-08-15 12:35:00,68.4,61.0,30.12,NE,36,0.0,9.0,78,0.00,,,0.00,weatherlink.com 1.10,2013-08-15 16:35:00,
2013-08-15 12:50:00,68.9,57.0,30.11,East,84,0.0,8.0,67,0.00,,,0.00,weatherlink.com 1.10,2013-08-15 16:50:00,
2013-08-15 13:05:00,69.2,58.0,30.11,ENE,73,1.0,6.0,68,0.00,,,0.00,weatherlink.com 1.10,2013-08-15 17:05:00,
2013-08-15 13:20:00,70.7,57.0,30.10,ESE,110,2.0,9.0,63,0.00,,,0.00,weatherlink.com 1.10,2013-08-15 17:20:00,
2013-08-15 13:35:00,70.2,58.0,30.10,North,5,1.0,6.0,65,0.00,,,0.00,weatherlink.com 1.10,2013-08-15 17:35:00,
2013-08-15 13:50:00,71.5,58.0,30.10,NE,55,1.0,7.0,63,0.00,,,0.00,weatherlink.com 1.10,2013-08-15 17:50:00,
2013-08-15 14:05:00,72.9,60.0,30.10,NNE,17,2.0,7.0,65,0.00,,,0.00,weatherlink.com 1.10,2013-08-15 18:05:00,
2013-08-15 14:20:00,72.1,58.0,30.09,East,88,2.0,6.0,62,0.00,,,0.00,weatherlink.com 1.10,2013-08-15 18:20:00,
2013-08-15 14:35:00,70.8,57.0,30.08,East,96,0.0,4.0,63,0.00,,,0.00,weatherlink.com 1.10,2013-08-15 18:35:00,
2013-08-15 14:50:00,72.8,61.0,30.08,ESE,110,0.0,5.0,66,0.00,,,0.00,weatherlink.com 1.10,2013-08-15 18:50:00,
2013-08-15 15:05:00,71.7,61.0,30.07,NE,38,1.0,5.0,68,0.00,,,0.00,weatherlink.com 1.10,2013-08-15 19:05:00,
2013-08-15 15:21:00,71.2,59.0,30.08,North,360,0.0,2.0,65,0.00,,,0.00,weatherlink.com 1.10,2013-08-15 19:21:00,
2013-08-15 15:35:00,70.4,59.0,30.07,NE,36,2.0,7.0,68,0.00,,,0.00,weatherlink.com 1.10,2013-08-15 19:35:00,
2013-08-15 15:50:00,69.9,60.0,30.07,NE,35,0.0,3.0,72,0.00,,,0.00,weatherlink.com 1.10,2013-08-15 19:50:00,
2013-08-15 16:05:00,70.4,62.0,30.07,East,80,0.0,3.0,75,0.00,,,0.00,weatherlink.com 1.10,2013-08-15 20:05:00,
2013-08-15 16:35:00,70.0,60.0,30.07,ENE,75,1.0,4.0,71,0.00,,,0.00,weatherlink.com 1.10,2013-08-15 20:35:00,
2013-08-15 16:50:00,69.9,62.0,30.06,ENE,65,0.0,3.0,75,0.00,,,0.00,weatherlink.com 1.10,2013-08-15 20:50:00,
2013-08-15 17:05:00,70.2,60.0,30.05,ENE,57,0.0,2.0,71,0.00,,,0.00,weatherlink.com 1.10,2013-08-15 21:05:00,
2013-08-15 17:20:00,70.5,61.0,30.05,NE,52,0.0,2.0,73,0.00,,,0.00,weatherlink.com 1.10,2013-08-15 21:20:00,
2013-08-15 17:36:00,70.4,62.0,30.05,North,355,3.0,3.0,74,0.00,,,0.00,weatherlink.com 1.10,2013-08-15 21:36:00,
2013-08-15 17:50:00,70.4,62.0,30.06,NE,56,0.0,3.0,75,0.00,,,0.00,weatherlink.com 1.10,2013-08-15 21:50:00,
2013-08-15 18:05:00,70.2,63.0,30.07,NE,56,0.0,1.0,77,0.00,,,0.00,weatherlink.com 1.10,2013-08-15 22:05:00,
2013-08-15 18:20:00,69.8,63.0,30.06,NNE,27,0.0,2.0,78,0.00,,,0.00,weatherlink.com 1.10,2013-08-15 22:20:00,
2013-08-15 18:35:00,69.7,63.0,30.07,NNE,22,0.0,3.0,79,0.00,,,0.00,weatherlink.com 1.10,2013-08-15 22:35:00,
2013-08-15 18:51:00,69.4,62.0,30.06,NE,42,2.0,3.0,77,0.00,,,0.00,weatherlink.com 1.10,2013-08-15 22:51:00,
2013-08-15 19:05:00,69.5,62.0,30.07,NE,42,0.0,2.0,78,0.00,,,0.00,weatherlink.com 1.10,2013-08-15 23:05:00,
2013-08-15 19:20:00,69.4,62.0,30.07,NE,53,0.0,2.0,76,0.00,,,0.00,weatherlink.com 1.10,2013-08-15 23:20:00,
2013-08-15 19:35:00,69.1,61.0,30.07,NE,42,0.0,3.0,76,0.00,,,0.00,weatherlink.com 1.10,2013-08-15 23:35:00,
2013-08-15 19:50:00,68.7,62.0,30.07,NE,42,0.0,1.0,78,0.00,,,0.00,weatherlink.com 1.10,2013-08-15 23:50:00,
2013-08-15 20:05:00,68.0,62.0,30.08,NE,42,0.0,2.0,80,0.00,,,0.00,weatherlink.com 1.10,2013-08-16 00:05:00,
2013-08-15 20:20:00,66.8,61.0,30.08,NE,42,0.0,0.0,82,0.00,,,0.00,weatherlink.com 1.10,2013-08-16 00:20:00,
2013-08-15 20:35:00,65.8,62.0,30.08,NE,42,0.0,0.0,86,0.00,,,0.00,weatherlink.com 1.10,2013-08-16 00:35:00,
2013-08-15 20:50:00,65.0,61.0,30.09,NE,42,0.0,0.0,87,0.00,,,0.00,weatherlink.com 1.10,2013-08-16 00:50:00,
2013-08-15 21:05:00,64.4,61.0,30.09,NE,42,0.0,0.0,88,0.00,,,0.00,weatherlink.com 1.10,2013-08-16 01:05:00,
2013-08-15 21:20:00,63.7,61.0,30.09,NE,42,0.0,0.0,89,0.00,,,0.00,weatherlink.com 1.10,2013-08-16 01:20:00,
2013-08-15 21:36:00,63.0,60.0,30.10,NE,42,0.0,1.0,90,0.00,,,0.00,weatherlink.com 1.10,2013-08-16 01:36:00,
2013-08-15 21:50:00,62.4,60.0,30.11,NE,42,0.0,0.0,91,0.00,,,0.00,weatherlink.com 1.10,2013-08-16 01:50:00,
2013-08-15 22:05:00,62.0,60.0,30.11,NE,42,0.0,0.0,92,0.00,,,0.00,weatherlink.com 1.10,2013-08-16 02:05:00,
2013-08-15 22:20:00,61.7,59.0,30.10,NE,53,0.0,2.0,92,0.00,,,0.00,weatherlink.com 1.10,2013-08-16 02:20:00,
2013-08-15 22:35:00,61.2,59.0,30.11,NE,53,0.0,2.0,92,0.00,,,0.00,weatherlink.com 1.10,2013-08-16 02:35:00,
2013-08-15 22:50:00,60.9,59.0,30.11,NE,53,0.0,1.0,93,0.00,,,0.00,weatherlink.com 1.10,2013-08-16 02:50:00,
2013-08-15 23:05:00,60.5,59.0,30.10,NE,53,0.0,0.0,93,0.00,,,0.00,weatherlink.com 1.10,2013-08-16 03:05:00,
2013-08-15 23:20:00,60.3,58.0,30.10,NE,53,0.0,1.0,93,0.00,,,0.00,weatherlink.com 1.10,2013-08-16 03:20:00,
2013-08-15 23:35:00,60.1,58.0,30.11,NE,53,0.0,0.0,93,0.00,,,0.00,weatherlink.com 1.10,2013-08-16 03:35:00,
2013-08-15 23:50:00,59.8,58.0,30.10,NE,53,0.0,1.0,94,0.00,,,0.00,weatherlink.com 1.10,2013-08-16 03:50:00,